createdAt,value
2023-03-29T00:01:11.849Z,101313.63
2023-03-29T00:03:25.105Z,101311.26
2023-03-29T00:05:23.115Z,101309.91
2023-03-29T00:07:16.083Z,101309.73
2023-03-29T00:09:10.117Z,101308.64
2023-03-29T00:11:03.372Z,101311.70
2023-03-29T00:12:56.566Z,101311.45
2023-03-29T00:14:49.417Z,101312.48
2023-03-29T00:16:44.815Z,101313.95
2023-03-29T00:18:37.968Z,101311.70
2023-03-29T00:20:30.918Z,101311.07
2023-03-29T00:22:24.039Z,101308.52
2023-03-29T00:24:17.017Z,101306.20
2023-03-29T00:26:09.813Z,101305.36
2023-03-29T00:28:02.711Z,101302.84
2023-03-29T00:29:56.582Z,101305.84
2023-03-29T00:31:54.423Z,101305.94
2023-03-29T00:33:47.601Z,101304.80
2023-03-29T00:35:40.854Z,101305.01
2023-03-29T00:37:34.055Z,101306.02
2023-03-29T00:39:28.058Z,101304.64
2023-03-29T00:41:21.655Z,101305.25
2023-03-29T00:43:16.032Z,101302.91
2023-03-29T00:45:12.049Z,101307.23
2023-03-29T00:47:04.989Z,101307.27
2023-03-29T00:49:05.924Z,101303.14
2023-03-29T00:51:09.835Z,101304.86
2023-03-29T00:53:22.131Z,101301.98
2023-03-29T00:55:21.733Z,101299.40
2023-03-29T00:57:18.101Z,101294.92
2023-03-29T00:59:18.898Z,101291.23
2023-03-29T01:01:17.543Z,101285.38
2023-03-29T01:03:24.877Z,101283.44
2023-03-29T01:05:34.526Z,101285.91
2023-03-29T01:07:35.420Z,101287.69
2023-03-29T01:09:31.223Z,101283.56
2023-03-29T01:11:31.965Z,101274.69
2023-03-29T01:14:00.258Z,101269.79
2023-03-29T01:15:56.610Z,101263.36
2023-03-29T01:17:54.036Z,101266.02
2023-03-29T01:19:58.310Z,101264.15
2023-03-29T01:22:16.193Z,101268.38
2023-03-29T01:24:38.250Z,101268.23
2023-03-29T01:26:51.245Z,101260.77
2023-03-29T01:28:53.260Z,101264.77
2023-03-29T01:30:56.705Z,101263.63
2023-03-29T01:32:57.204Z,101268.55
2023-03-29T01:34:57.720Z,101262.95
2023-03-29T01:37:26.692Z,101265.52
2023-03-29T01:39:22.143Z,101266.33
2023-03-29T01:41:15.915Z,101264.10
2023-03-29T01:43:21.914Z,101261.09
2023-03-29T01:45:24.654Z,101255.95
2023-03-29T01:47:26.320Z,101256.10
2023-03-29T01:49:29.283Z,101259.21
2023-03-29T01:51:29.445Z,101247.60
2023-03-29T01:53:41.495Z,101248.50
2023-03-29T01:55:39.860Z,101246.86
2023-03-29T01:57:34.662Z,101242.56
2023-03-29T01:59:32.453Z,101241.66
2023-03-29T02:01:30.635Z,101241.71
2023-03-29T02:03:31.062Z,101241.20
2023-03-29T02:05:26.612Z,101240.98
2023-03-29T02:07:30.635Z,101244.27
2023-03-29T02:09:23.990Z,101246.17
2023-03-29T02:11:17.552Z,101244.11
2023-03-29T02:13:10.604Z,101243.41
2023-03-29T02:15:07.249Z,101239.85
2023-03-29T02:17:24.365Z,101238.17
2023-03-29T02:19:18.836Z,101240.45
2023-03-29T02:21:21.388Z,101240.11
2023-03-29T02:23:24.495Z,101237.36
2023-03-29T02:25:18.711Z,101236.48
2023-03-29T02:27:12.441Z,101231.86
2023-03-29T02:29:07.032Z,101229.75
2023-03-29T02:31:12.282Z,101231.71
2023-03-29T02:33:14.120Z,101229.59
2023-03-29T02:35:14.372Z,101225.99
2023-03-29T02:37:13.060Z,101226.27
2023-03-29T02:39:08.303Z,101224.89
2023-03-29T02:41:02.354Z,101222.27
2023-03-29T02:42:57.748Z,101220.32
2023-03-29T02:44:54.630Z,101220.50
2023-03-29T02:46:51.010Z,101215.08
2023-03-29T02:48:48.635Z,101213.89
2023-03-29T02:50:45.572Z,101216.81
2023-03-29T02:52:46.206Z,101214.63
2023-03-29T02:54:43.440Z,101215.13
2023-03-29T02:56:48.463Z,101208.88
2023-03-29T02:58:41.533Z,101205.86
2023-03-29T03:00:38.321Z,101207.02
2023-03-29T03:02:31.464Z,101204.23
2023-03-29T03:04:25.715Z,101203.77
2023-03-29T03:06:18.614Z,101205.64
2023-03-29T03:08:11.607Z,101201.66
2023-03-29T03:10:05.175Z,101201.15
2023-03-29T03:11:58.063Z,101200.06
2023-03-29T03:13:51.880Z,101200.63
2023-03-29T03:15:48.959Z,101199.20
2023-03-29T03:17:42.183Z,101191.20
2023-03-29T03:19:35.035Z,101190.68
2023-03-29T03:21:28.407Z,101189.65
2023-03-29T03:23:21.428Z,101188.26
2023-03-29T03:25:16.926Z,101185.46
2023-03-29T03:27:09.733Z,101187.13
2023-03-29T03:29:02.945Z,101191.98
2023-03-29T03:31:22.678Z,101190.58
2023-03-29T03:33:35.012Z,101191.20
2023-03-29T03:35:48.106Z,101189.32
2023-03-29T03:37:42.218Z,101187.13
2023-03-29T03:39:35.368Z,101188.64
2023-03-29T03:41:28.925Z,101187.32
2023-03-29T03:43:22.180Z,101182.86
2023-03-29T03:45:15.643Z,101180.92
2023-03-29T03:47:17.497Z,101184.02
2023-03-29T03:49:10.548Z,101186.59
2023-03-29T03:51:06.158Z,101184.09
2023-03-29T03:52:59.922Z,101184.60
2023-03-29T03:54:53.324Z,101182.14
2023-03-29T03:57:01.243Z,101182.66
2023-03-29T03:59:05.506Z,101183.36
2023-03-29T04:01:08.988Z,101185.23
2023-03-29T04:03:06.241Z,101180.58
2023-03-29T04:05:03.795Z,101181.02
2023-03-29T04:07:04.129Z,101182.20
2023-03-29T04:09:02.906Z,101178.20
2023-03-29T04:11:02.899Z,101180.16
2023-03-29T04:13:02.528Z,101182.12
2023-03-29T04:14:56.186Z,101182.96
2023-03-29T04:16:50.980Z,101182.04
2023-03-29T04:19:04.097Z,101184.87
2023-03-29T04:20:57.147Z,101182.77
2023-03-29T04:22:51.325Z,101180.47
2023-03-29T04:24:45.097Z,101180.10
2023-03-29T04:27:04.153Z,101177.89
2023-03-29T04:28:57.308Z,101177.23
2023-03-29T04:31:12.520Z,101177.77
2023-03-29T04:33:34.516Z,101174.30
2023-03-29T04:35:27.862Z,101173.98
2023-03-29T04:37:22.142Z,101168.95
2023-03-29T04:39:18.173Z,101172.59
2023-03-29T04:41:13.677Z,101171.59
2023-03-29T04:43:23.746Z,101169.72
2023-03-29T04:45:31.529Z,101168.67
2023-03-29T04:47:32.960Z,101164.73
2023-03-29T04:49:36.364Z,101163.35
2023-03-29T04:51:33.310Z,101163.45
2023-03-29T04:53:26.458Z,101156.86
2023-03-29T04:55:19.918Z,101155.36
2023-03-29T04:57:18.867Z,101155.68
2023-03-29T04:59:24.757Z,101158.29
2023-03-29T05:01:18.196Z,101154.59
2023-03-29T05:03:18.739Z,101151.54
2023-03-29T05:05:22.966Z,101140.81
2023-03-29T05:07:18.050Z,101143.27
2023-03-29T05:09:11.022Z,101138.52
2023-03-29T05:11:15.430Z,101137.01
2023-03-29T05:13:08.672Z,101136.69
2023-03-29T05:15:01.522Z,101137.79
2023-03-29T05:16:54.568Z,101138.17
2023-03-29T05:18:47.418Z,101134.44
2023-03-29T05:20:40.780Z,101132.52
2023-03-29T05:22:36.485Z,101130.86
2023-03-29T05:24:29.321Z,101130.32
2023-03-29T05:26:29.958Z,101128.84
2023-03-29T05:28:23.534Z,101125.64
2023-03-29T05:30:16.576Z,101119.52
2023-03-29T05:32:20.889Z,101112.57
2023-03-29T05:34:13.936Z,101107.52
2023-03-29T05:36:16.563Z,101110.20
2023-03-29T05:38:13.762Z,101106.64
2023-03-29T05:40:10.277Z,101113.77
2023-03-29T05:42:22.425Z,101113.92
2023-03-29T05:44:20.046Z,101115.27
2023-03-29T05:46:16.642Z,101120.55
2023-03-29T05:48:14.444Z,101121.69
2023-03-29T05:50:10.444Z,101120.44
2023-03-29T05:52:04.132Z,101123.41
2023-03-29T05:53:58.435Z,101121.54
2023-03-29T05:55:53.643Z,101122.00
2023-03-29T05:57:47.701Z,101122.52
2023-03-29T05:59:40.629Z,101121.96
2023-03-29T06:01:35.014Z,101121.85
2023-03-29T06:03:31.486Z,101122.09
2023-03-29T06:05:26.361Z,101126.49
2023-03-29T06:07:27.486Z,101125.86
2023-03-29T06:09:41.075Z,101123.02
2023-03-29T06:11:35.002Z,101121.92
2023-03-29T06:13:46.051Z,101119.45
2023-03-29T06:15:39.154Z,101117.70
2023-03-29T06:17:34.673Z,101117.70
2023-03-29T06:19:27.602Z,101115.00
2023-03-29T06:21:22.506Z,101120.44
2023-03-29T06:23:15.608Z,101119.17
2023-03-29T06:25:11.090Z,101117.59
2023-03-29T06:27:04.410Z,101115.52
2023-03-29T06:28:57.564Z,101116.81
2023-03-29T06:30:51.101Z,101118.33
2023-03-29T06:32:44.207Z,101115.96
2023-03-29T06:34:48.601Z,101118.95
2023-03-29T06:36:55.059Z,101120.39
2023-03-29T06:38:48.116Z,101120.45
2023-03-29T06:41:07.481Z,101118.88
2023-03-29T06:43:17.426Z,101115.15
2023-03-29T06:45:23.277Z,101115.61
2023-03-29T06:47:20.324Z,101110.92
2023-03-29T06:49:13.884Z,101114.45
2023-03-29T06:51:24.443Z,101103.37
2023-03-29T06:53:17.392Z,101101.73
2023-03-29T06:55:16.076Z,101099.20
2023-03-29T06:57:08.959Z,101099.71
2023-03-29T06:59:01.981Z,101101.36
2023-03-29T07:01:02.505Z,101108.06
2023-03-29T07:03:23.868Z,101108.13
2023-03-29T07:05:20.447Z,101106.12
2023-03-29T07:07:20.730Z,101108.59
2023-03-29T07:09:19.624Z,101110.19
2023-03-29T07:11:31.644Z,101101.22
2023-03-29T07:13:33.709Z,101104.33
2023-03-29T07:15:28.882Z,101102.13
2023-03-29T07:17:41.244Z,101105.09
2023-03-29T07:19:37.433Z,101106.39
2023-03-29T07:21:41.646Z,101105.71
2023-03-29T07:23:35.014Z,101107.84
2023-03-29T07:25:30.103Z,101107.45
2023-03-29T07:27:24.280Z,101109.36
2023-03-29T07:29:17.227Z,101108.59
2023-03-29T07:31:12.223Z,101105.38
2023-03-29T07:33:10.864Z,101108.84
2023-03-29T07:35:09.503Z,101108.16
2023-03-29T07:37:02.437Z,101108.21
2023-03-29T07:38:57.267Z,101106.32
2023-03-29T07:40:50.625Z,101106.42
2023-03-29T07:43:11.177Z,101102.02
2023-03-29T07:45:08.741Z,101097.15
2023-03-29T07:47:07.317Z,101090.14
2023-03-29T07:49:03.743Z,101084.09
2023-03-29T07:50:57.335Z,101085.67
2023-03-29T07:52:56.939Z,101083.86
2023-03-29T07:54:50.063Z,101088.27
2023-03-29T07:56:53.261Z,101089.88
2023-03-29T07:58:50.613Z,101094.16
2023-03-29T08:00:43.815Z,101092.80
2023-03-29T08:03:00.941Z,101091.87
2023-03-29T08:04:54.689Z,101090.88
2023-03-29T08:06:56.824Z,101088.05
2023-03-29T08:08:54.566Z,101080.79
2023-03-29T08:10:47.510Z,101077.05
2023-03-29T08:12:58.651Z,101077.55
2023-03-29T08:14:56.690Z,101080.17
2023-03-29T08:16:54.899Z,101079.73
2023-03-29T08:18:47.876Z,101078.59
2023-03-29T08:20:40.932Z,101079.71
2023-03-29T08:22:34.698Z,101080.87
2023-03-29T08:24:45.358Z,101077.73
2023-03-29T08:26:38.722Z,101075.91
2023-03-29T08:28:32.279Z,101075.89
2023-03-29T08:30:26.047Z,101073.56
2023-03-29T08:32:18.930Z,101071.09
2023-03-29T08:34:11.724Z,101067.30
2023-03-29T08:36:15.073Z,101063.71
2023-03-29T08:38:10.550Z,101060.20
2023-03-29T08:40:04.453Z,101055.34
2023-03-29T08:42:56.963Z,101055.37
2023-03-29T08:45:06.491Z,101053.83
2023-03-29T08:47:16.743Z,101053.55
2023-03-29T08:49:12.441Z,101050.38
2023-03-29T08:51:29.878Z,101045.00
2023-03-29T08:53:30.709Z,101040.77
2023-03-29T08:55:43.421Z,101037.88
2023-03-29T08:58:02.483Z,101041.27
2023-03-29T08:59:59.786Z,101039.79
2023-03-29T09:01:55.991Z,101042.80
2023-03-29T09:03:58.491Z,101039.36
2023-03-29T09:06:09.780Z,101038.47
2023-03-29T09:08:03.370Z,101037.15
2023-03-29T09:09:57.329Z,101036.04
2023-03-29T09:12:18.663Z,101033.46
2023-03-29T09:14:52.738Z,101034.13
2023-03-29T09:17:03.953Z,101031.89
2023-03-29T09:19:21.882Z,101029.04
2023-03-29T09:21:44.111Z,101026.31
2023-03-29T09:23:47.100Z,101024.67
2023-03-29T09:25:54.138Z,101021.85
2023-03-29T09:28:03.506Z,101017.69
2023-03-29T09:30:32.293Z,101017.52
2023-03-29T09:32:36.621Z,101014.77
2023-03-29T09:34:50.447Z,101014.09
2023-03-29T09:36:54.568Z,101011.02
2023-03-29T09:38:51.151Z,101008.59
2023-03-29T09:40:54.084Z,101007.70
2023-03-29T09:42:51.607Z,101003.45
2023-03-29T09:44:51.028Z,101002.08
2023-03-29T09:46:56.066Z,100998.00
2023-03-29T09:48:50.950Z,100992.73
2023-03-29T09:50:47.614Z,100988.49
2023-03-29T09:52:41.047Z,100985.27
2023-03-29T09:54:40.754Z,100985.08
2023-03-29T09:56:52.866Z,100978.92
2023-03-29T09:58:47.335Z,100981.34
2023-03-29T10:00:42.842Z,100974.77
2023-03-29T10:02:36.458Z,100981.25
2023-03-29T10:04:29.713Z,100975.80
2023-03-29T10:06:27.016Z,100977.75
2023-03-29T10:08:31.532Z,100974.97
2023-03-29T10:10:32.046Z,100970.22
2023-03-29T10:12:25.415Z,100970.70
2023-03-29T10:14:21.521Z,100964.74
2023-03-29T10:16:21.353Z,100966.67
2023-03-29T10:18:14.393Z,100965.27
2023-03-29T10:20:14.263Z,100967.76
2023-03-29T10:22:16.580Z,100961.27
2023-03-29T10:24:10.139Z,100962.25
2023-03-29T10:26:06.980Z,100955.45
2023-03-29T10:28:21.305Z,100950.82
2023-03-29T10:30:23.977Z,100950.63
2023-03-29T10:32:26.192Z,100948.02
2023-03-29T10:34:25.302Z,100945.80
2023-03-29T10:36:18.351Z,100943.81
2023-03-29T10:38:14.998Z,100939.93
2023-03-29T10:40:19.171Z,100937.76
2023-03-29T10:42:16.817Z,100934.86
2023-03-29T10:44:32.955Z,100929.80
2023-03-29T10:46:33.707Z,100932.42
2023-03-29T10:48:31.899Z,100923.86
2023-03-29T10:50:27.190Z,100923.75
2023-03-29T10:52:21.602Z,100924.89
2023-03-29T10:54:20.409Z,100926.52
2023-03-29T10:56:31.248Z,100924.54
2023-03-29T10:58:35.774Z,100921.31
2023-03-29T11:00:40.104Z,100916.11
2023-03-29T11:03:04.446Z,100914.77
2023-03-29T11:05:20.458Z,100910.73
2023-03-29T11:07:31.746Z,100906.33
2023-03-29T11:10:21.620Z,100903.31
2023-03-29T11:12:43.652Z,100900.34
2023-03-29T11:14:58.653Z,100897.61
2023-03-29T11:17:23.244Z,100894.68
2023-03-29T11:19:29.359Z,100893.71
2023-03-29T11:21:40.746Z,100888.43
2023-03-29T11:24:01.544Z,100886.34
2023-03-29T11:26:19.165Z,100880.41
2023-03-29T11:28:24.304Z,100880.31
2023-03-29T11:30:31.279Z,100882.69
2023-03-29T11:32:48.796Z,100874.05
2023-03-29T11:35:01.626Z,100877.77
2023-03-29T11:36:59.075Z,100873.82
2023-03-29T11:39:31.065Z,100872.91
2023-03-29T11:41:33.273Z,100870.05
2023-03-29T11:43:42.948Z,100866.83
2023-03-29T11:45:41.929Z,100866.14
2023-03-29T11:47:40.935Z,100863.29
2023-03-29T11:49:45.759Z,100856.05
2023-03-29T11:51:46.371Z,100857.38
2023-03-29T11:53:59.400Z,100853.21
2023-03-29T11:55:55.404Z,100844.97
2023-03-29T11:57:56.661Z,100843.13
2023-03-29T12:00:22.369Z,100838.36
2023-03-29T12:02:29.112Z,100837.45
2023-03-29T12:04:32.425Z,100825.60
2023-03-29T12:06:37.874Z,100826.74
2023-03-29T12:09:03.998Z,100827.70
2023-03-29T12:11:19.580Z,100827.62
2023-03-29T12:13:22.699Z,100824.68
2023-03-29T12:15:20.527Z,100823.52
2023-03-29T12:17:20.456Z,100815.80
2023-03-29T12:19:23.441Z,100815.83
2023-03-29T12:21:20.988Z,100804.27
2023-03-29T12:23:16.384Z,100807.39
2023-03-29T12:25:18.178Z,100805.40
2023-03-29T12:27:35.272Z,100800.09
2023-03-29T12:29:50.172Z,100799.00
2023-03-29T12:32:04.352Z,100798.81
2023-03-29T12:34:14.562Z,100802.45
2023-03-29T12:36:32.470Z,100793.25
2023-03-29T12:38:48.594Z,100795.19
2023-03-29T12:41:11.549Z,100785.13
2023-03-29T12:43:33.762Z,100784.89
2023-03-29T12:45:51.341Z,100780.54
2023-03-29T12:47:46.631Z,100777.10
2023-03-29T12:49:42.648Z,100780.38
2023-03-29T12:51:39.930Z,100778.44
2023-03-29T12:53:43.026Z,100774.95
2023-03-29T12:55:42.553Z,100773.66
2023-03-29T12:57:44.294Z,100771.81
2023-03-29T12:59:40.083Z,100770.92
2023-03-29T13:01:41.472Z,100766.06
2023-03-29T13:04:14.880Z,100766.59
2023-03-29T13:06:10.764Z,100768.35
2023-03-29T13:08:44.179Z,100765.30
2023-03-29T13:10:41.957Z,100764.95
2023-03-29T13:12:34.711Z,100762.16
2023-03-29T13:14:32.003Z,100757.75
2023-03-29T13:16:36.134Z,100757.08
2023-03-29T13:18:34.079Z,100754.17
2023-03-29T13:20:48.833Z,100752.84
2023-03-29T13:23:37.746Z,100744.81
2023-03-29T13:26:09.758Z,100741.25
2023-03-29T13:28:17.585Z,100740.52
2023-03-29T13:30:32.419Z,100736.31
2023-03-29T13:32:47.213Z,100738.30
2023-03-29T13:34:48.754Z,100731.65
2023-03-29T13:37:01.860Z,100725.25
2023-03-29T13:38:56.286Z,100723.46
2023-03-29T13:40:53.119Z,100724.55
2023-03-29T13:42:57.662Z,100728.00
2023-03-29T13:45:15.107Z,100721.34
2023-03-29T13:47:26.640Z,100721.12
2023-03-29T13:49:39.510Z,100716.70
2023-03-29T13:51:42.292Z,100712.48
2023-03-29T13:53:40.259Z,100711.73
2023-03-29T13:55:42.417Z,100706.21
2023-03-29T13:57:40.872Z,100708.39
2023-03-29T13:59:37.574Z,100704.70
2023-03-29T14:01:45.891Z,100707.00
2023-03-29T14:03:45.745Z,100703.48
2023-03-29T14:05:41.854Z,100702.70
2023-03-29T14:07:39.631Z,100711.26
2023-03-29T14:09:36.137Z,100708.43
2023-03-29T14:11:30.660Z,100710.54
2023-03-29T14:13:25.566Z,100703.73
2023-03-29T14:15:25.767Z,100707.14
2023-03-29T14:20:50.173Z,100703.05
2023-03-29T14:22:49.684Z,100696.45
2023-03-29T14:25:05.945Z,100697.91
2023-03-29T14:27:03.004Z,100692.16
2023-03-29T14:29:19.048Z,100693.88
2023-03-29T14:31:19.961Z,100690.83
2023-03-29T14:33:32.698Z,100684.98
2023-03-29T14:35:32.472Z,100682.64
2023-03-29T14:37:28.680Z,100682.13
2023-03-29T14:39:23.379Z,100676.69
2023-03-29T14:41:16.673Z,100676.58
2023-03-29T14:43:11.211Z,100674.63
2023-03-29T14:45:06.426Z,100669.47
2023-03-29T14:47:01.707Z,100666.12
2023-03-29T14:48:56.498Z,100666.39
2023-03-29T14:50:49.968Z,100659.32
2023-03-29T14:52:44.990Z,100658.04
2023-03-29T14:54:43.548Z,100658.68
2023-03-29T14:56:36.898Z,100654.95
2023-03-29T14:58:34.153Z,100652.66
2023-03-29T15:00:31.498Z,100657.02
2023-03-29T15:02:27.919Z,100652.39
2023-03-29T15:04:21.285Z,100647.69
2023-03-29T15:06:14.239Z,100639.66
2023-03-29T15:08:13.447Z,100641.65
2023-03-29T15:10:07.854Z,100643.34
2023-03-29T15:12:03.649Z,100638.25
2023-03-29T15:14:17.167Z,100633.84
2023-03-29T15:16:14.457Z,100635.52
2023-03-29T15:18:13.728Z,100633.66
2023-03-29T15:20:18.648Z,100633.25
2023-03-29T15:22:11.889Z,100631.20
2023-03-29T15:24:05.964Z,100626.55
2023-03-29T15:26:10.667Z,100624.08
2023-03-29T15:28:04.458Z,100620.61
2023-03-29T15:30:04.374Z,100619.52
2023-03-29T15:31:59.209Z,100616.48
2023-03-29T15:34:09.096Z,100616.69
2023-03-29T15:36:05.868Z,100612.71
2023-03-29T15:37:59.745Z,100610.30
2023-03-29T15:39:53.579Z,100616.83
2023-03-29T15:41:52.625Z,100612.64
2023-03-29T15:43:46.339Z,100609.55
2023-03-29T15:45:39.330Z,100611.80
2023-03-29T15:47:32.269Z,100609.79
2023-03-29T15:49:26.449Z,100609.01
2023-03-29T15:51:19.460Z,100613.70
2023-03-29T15:53:15.805Z,100610.61
2023-03-29T15:55:09.663Z,100606.67
2023-03-29T15:57:06.673Z,100603.98
2023-03-29T15:58:59.648Z,100609.27
2023-03-29T16:01:37.505Z,100611.37
2023-03-29T16:03:30.704Z,100611.23
2023-03-29T16:05:23.655Z,100607.67
2023-03-29T16:07:18.526Z,100610.69
2023-03-29T16:09:14.006Z,100610.06
2023-03-29T16:11:06.903Z,100613.65
2023-03-29T16:12:59.745Z,100609.50
2023-03-29T16:14:52.706Z,100613.44
2023-03-29T16:16:46.080Z,100612.30
2023-03-29T16:18:39.111Z,100607.28
2023-03-29T16:20:32.823Z,100606.79
2023-03-29T16:22:26.331Z,100604.02
2023-03-29T16:24:24.152Z,100606.04
2023-03-29T16:26:17.278Z,100607.87
2023-03-29T16:28:10.287Z,100610.21
2023-03-29T16:30:03.514Z,100614.91
2023-03-29T16:31:56.943Z,100615.40
2023-03-29T16:33:50.060Z,100614.65
2023-03-29T16:35:43.270Z,100611.80
2023-03-29T16:37:36.569Z,100615.20
2023-03-29T16:39:29.522Z,100618.16
2023-03-29T16:41:23.280Z,100615.81
2023-03-29T16:43:17.607Z,100623.98
2023-03-29T16:45:17.578Z,100625.31
2023-03-29T16:47:12.252Z,100623.85
2023-03-29T16:49:07.890Z,100620.96
2023-03-29T16:51:00.938Z,100618.54
2023-03-29T16:52:54.288Z,100619.62
2023-03-29T16:54:47.231Z,100617.70
2023-03-29T16:56:40.667Z,100611.67
2023-03-29T16:58:34.770Z,100611.83
2023-03-29T17:00:27.837Z,100611.71
2023-03-29T17:02:21.585Z,100609.36
2023-03-29T17:04:15.691Z,100602.60
2023-03-29T17:06:11.297Z,100593.85
2023-03-29T17:08:05.118Z,100597.43
2023-03-29T17:09:58.597Z,100591.66
2023-03-29T17:11:51.568Z,100597.85
2023-03-29T17:13:45.013Z,100608.98
2023-03-29T17:15:39.727Z,100606.77
2023-03-29T17:17:34.520Z,100609.73
2023-03-29T17:19:27.741Z,100608.04
2023-03-29T17:21:21.507Z,100604.05
2023-03-29T17:23:14.872Z,100601.41
2023-03-29T17:25:08.947Z,100600.90
2023-03-29T17:27:01.997Z,100597.30
2023-03-29T17:28:54.940Z,100594.86
2023-03-29T17:30:48.033Z,100593.39
2023-03-29T17:32:41.632Z,100604.28
2023-03-29T17:34:34.912Z,100606.86
2023-03-29T17:36:29.018Z,100605.52
2023-03-29T17:38:22.913Z,100604.96
2023-03-29T17:40:18.208Z,100606.67
2023-03-29T17:42:11.823Z,100604.54
2023-03-29T17:44:05.796Z,100602.05
2023-03-29T17:45:58.947Z,100598.36
2023-03-29T17:47:52.160Z,100596.13
2023-03-29T17:49:45.568Z,100601.80
2023-03-29T17:51:38.408Z,100606.80
2023-03-29T17:53:31.462Z,100610.17
2023-03-29T17:55:24.512Z,100606.55
2023-03-29T17:57:19.391Z,100603.36
2023-03-29T17:59:12.580Z,100604.23
2023-03-29T18:01:14.788Z,100607.06
2023-03-29T18:03:08.525Z,100605.73
2023-03-29T18:05:02.156Z,100605.41
2023-03-29T18:06:55.566Z,100608.45
2023-03-29T18:08:51.020Z,100607.11
2023-03-29T18:10:44.586Z,100608.52
2023-03-29T18:12:37.938Z,100602.86
2023-03-29T18:14:31.742Z,100605.30
2023-03-29T18:16:26.430Z,100606.30
2023-03-29T18:18:19.782Z,100602.98
2023-03-29T18:20:17.313Z,100606.03
2023-03-29T18:22:13.129Z,100608.05
2023-03-29T18:24:06.412Z,100607.29
2023-03-29T18:26:06.754Z,100606.59
2023-03-29T18:28:01.450Z,100609.19
2023-03-29T18:29:56.736Z,100612.45
2023-03-29T18:31:50.837Z,100614.45
2023-03-29T18:33:44.705Z,100610.60
2023-03-29T18:35:39.379Z,100613.48
2023-03-29T18:37:32.550Z,100609.19
2023-03-29T18:39:25.947Z,100609.88
2023-03-29T18:41:19.815Z,100609.26
2023-03-29T18:43:12.762Z,100605.70
2023-03-29T18:45:06.100Z,100608.38
2023-03-29T18:46:58.969Z,100606.15
2023-03-29T18:48:53.565Z,100602.02
2023-03-29T18:50:47.071Z,100601.67
2023-03-29T18:52:40.168Z,100598.79
2023-03-29T18:54:33.428Z,100599.96
2023-03-29T18:56:28.010Z,100598.98
2023-03-29T18:58:24.080Z,100599.39
2023-03-29T19:00:17.721Z,100598.88
2023-03-29T19:02:11.133Z,100601.16
2023-03-29T19:04:04.614Z,100601.58
2023-03-29T19:05:58.493Z,100596.21
2023-03-29T19:07:51.738Z,100596.71
2023-03-29T19:09:45.414Z,100596.25
2023-03-29T19:11:38.209Z,100596.58
2023-03-29T19:13:31.403Z,100593.89
2023-03-29T19:15:25.310Z,100598.30
2023-03-29T19:17:18.324Z,100596.98
2023-03-29T19:19:11.387Z,100591.71
2023-03-29T19:21:04.327Z,100591.77
2023-03-29T19:22:57.271Z,100592.00
2023-03-29T19:24:50.221Z,100590.73
2023-03-29T19:26:44.513Z,100594.77
2023-03-29T19:28:37.411Z,100594.42
2023-03-29T19:30:31.425Z,100589.73
2023-03-29T19:32:24.381Z,100592.33
2023-03-29T19:34:19.783Z,100592.31
2023-03-29T19:36:12.773Z,100586.39
2023-03-29T19:38:05.772Z,100589.00
2023-03-29T19:39:58.860Z,100590.08
2023-03-29T19:41:51.767Z,100587.29
2023-03-29T19:43:44.619Z,100586.39
2023-03-29T19:45:37.457Z,100586.92
2023-03-29T19:47:30.735Z,100583.33
2023-03-29T19:49:23.557Z,100581.68
2023-03-29T19:51:16.822Z,100581.04
2023-03-29T19:53:10.885Z,100577.31
2023-03-29T19:55:04.246Z,100581.30
2023-03-29T19:56:57.493Z,100583.21
2023-03-29T19:58:51.172Z,100582.27
2023-03-29T20:00:44.109Z,100582.89
2023-03-29T20:02:36.985Z,100586.15
2023-03-29T20:04:33.366Z,100585.94
2023-03-29T20:06:26.640Z,100587.56
2023-03-29T20:08:19.488Z,100586.61
2023-03-29T20:10:12.547Z,100587.61
2023-03-29T20:12:05.492Z,100584.12
2023-03-29T20:13:58.537Z,100585.02
2023-03-29T20:15:51.791Z,100585.07
2023-03-29T20:17:45.066Z,100583.56
2023-03-29T20:19:37.894Z,100584.59
2023-03-29T20:21:33.731Z,100584.06
2023-03-29T20:23:26.874Z,100581.96
2023-03-29T20:25:21.326Z,100581.79
2023-03-29T20:27:16.037Z,100574.79
2023-03-29T20:29:08.893Z,100576.06
2023-03-29T20:31:06.938Z,100574.05
2023-03-29T20:32:59.841Z,100569.83
2023-03-29T20:34:56.252Z,100572.82
2023-03-29T20:36:55.664Z,100572.94
2023-03-29T20:38:50.431Z,100574.89
2023-03-29T20:40:45.374Z,100569.89
2023-03-29T20:42:39.855Z,100570.95
2023-03-29T20:44:35.336Z,100570.46
2023-03-29T20:46:35.928Z,100567.29
2023-03-29T20:48:32.686Z,100559.40
2023-03-29T20:50:30.673Z,100556.48
2023-03-29T20:52:24.714Z,100556.51
2023-03-29T20:54:18.386Z,100552.85
2023-03-29T20:56:13.912Z,100556.97
2023-03-29T20:58:08.441Z,100558.38
2023-03-29T21:00:03.116Z,100562.92
2023-03-29T21:02:00.491Z,100558.67
2023-03-29T21:03:54.120Z,100559.92
2023-03-29T21:05:47.128Z,100562.09
2023-03-29T21:07:40.072Z,100562.30
2023-03-29T21:09:34.341Z,100557.38
2023-03-29T21:11:27.822Z,100551.98
2023-03-29T21:13:20.965Z,100547.63
2023-03-29T21:15:14.261Z,100549.96
2023-03-29T21:17:09.484Z,100545.82
2023-03-29T21:19:02.508Z,100538.30
2023-03-29T21:20:55.419Z,100536.84
2023-03-29T21:22:48.378Z,100534.38
2023-03-29T21:24:41.538Z,100527.16
2023-03-29T21:26:37.458Z,100526.11
2023-03-29T21:28:31.164Z,100525.89
2023-03-29T21:30:24.152Z,100527.52
2023-03-29T21:32:17.099Z,100525.84
2023-03-29T21:34:10.208Z,100523.45
2023-03-29T21:36:03.996Z,100519.96
2023-03-29T21:37:58.048Z,100521.48
2023-03-29T21:42:15.633Z,100523.39
2023-03-29T21:44:08.586Z,100519.95
2023-03-29T21:46:01.984Z,100517.78
2023-03-29T21:47:55.732Z,100520.06
2023-03-29T21:49:48.856Z,100519.96
2023-03-29T21:51:41.704Z,100522.59
2023-03-29T21:53:35.371Z,100521.27
2023-03-29T21:55:28.424Z,100523.77
2023-03-29T21:57:21.431Z,100518.64
2023-03-29T21:59:14.530Z,100515.98
2023-03-29T22:01:10.229Z,100511.46
2023-03-29T22:03:03.376Z,100508.00
2023-03-29T22:04:56.851Z,100504.20
2023-03-29T22:06:49.675Z,100501.41
2023-03-29T22:08:42.543Z,100501.78
2023-03-29T22:10:37.989Z,100498.50
2023-03-29T22:12:37.918Z,100492.71
2023-03-29T22:14:35.173Z,100490.79
2023-03-29T22:16:28.626Z,100492.63
2023-03-29T22:18:22.007Z,100495.98
2023-03-29T22:20:15.369Z,100491.55
2023-03-29T22:22:13.781Z,100486.25
2023-03-29T22:24:07.430Z,100483.28
2023-03-29T22:26:05.186Z,100483.11
2023-03-29T22:27:58.030Z,100483.52
2023-03-29T22:29:50.876Z,100481.05
2023-03-29T22:31:43.963Z,100479.54
2023-03-29T22:33:37.796Z,100481.63
2023-03-29T22:35:30.778Z,100479.85
2023-03-29T22:37:24.110Z,100479.10
2023-03-29T22:39:17.356Z,100475.88
2023-03-29T22:41:10.516Z,100477.79
2023-03-29T22:43:05.277Z,100473.70
2023-03-29T22:44:58.381Z,100474.98